createdAt,value
2022-12-15T00:02:18.654Z,5.72
2022-12-15T00:05:04.261Z,5.39
2022-12-15T00:07:49.362Z,5.19
2022-12-15T00:10:34.686Z,5.64
2022-12-15T00:13:19.874Z,5.89
2022-12-15T00:16:07.056Z,5.49
2022-12-15T00:18:52.453Z,5.14
2022-12-15T00:21:37.647Z,5.01
2022-12-15T00:24:23.144Z,4.91
2022-12-15T00:27:08.398Z,5.27
2022-12-15T00:29:53.558Z,5.22
2022-12-15T00:32:38.578Z,4.78
2022-12-15T00:35:24.885Z,5.02
2022-12-15T00:38:09.702Z,5.51
2022-12-15T00:40:36.424Z,5.46
2022-12-15T00:43:03.556Z,5.21
2022-12-15T00:45:48.737Z,4.81
2022-12-15T00:48:15.755Z,5.00
2022-12-15T00:50:54.201Z,5.19
2022-12-15T00:53:41.717Z,5.40
2022-12-15T00:56:28.128Z,5.60
2022-12-15T00:59:13.838Z,5.66
2022-12-15T01:01:59.573Z,5.30
2022-12-15T01:04:45.312Z,4.74
2022-12-15T01:07:30.516Z,4.49
2022-12-15T01:10:15.748Z,4.13
2022-12-15T01:13:01.133Z,3.49
2022-12-15T01:15:46.589Z,4.31
2022-12-15T01:18:31.560Z,4.72
2022-12-15T01:21:03.480Z,5.11
2022-12-15T01:23:31.289Z,5.19
2022-12-15T01:25:58.497Z,5.25
2022-12-15T01:28:25.393Z,5.15
2022-12-15T01:30:52.842Z,5.20
2022-12-15T01:33:20.467Z,4.22
2022-12-15T01:36:01.768Z,4.73
2022-12-15T01:38:28.990Z,4.75
2022-12-15T01:40:59.518Z,3.47
2022-12-15T01:43:30.409Z,3.80
2022-12-15T01:46:20.348Z,4.50
2022-12-15T01:48:51.765Z,4.61
2022-12-15T01:51:33.719Z,4.72
2022-12-15T01:54:17.748Z,4.12
2022-12-15T01:56:48.303Z,4.48
2022-12-15T01:59:22.675Z,3.74
2022-12-15T02:01:49.687Z,3.49
2022-12-15T02:04:19.826Z,3.73
2022-12-15T02:06:46.396Z,4.01
2022-12-15T02:09:13.469Z,4.51
2022-12-15T02:12:05.858Z,4.34
2022-12-15T02:14:48.917Z,4.30
2022-12-15T02:17:45.598Z,4.55
2022-12-15T02:20:42.052Z,5.00
2022-12-15T02:23:46.330Z,5.03
2022-12-15T02:26:25.419Z,5.41
2022-12-15T02:29:29.191Z,4.83
2022-12-15T02:32:11.533Z,5.07
2022-12-15T02:34:49.167Z,5.18
2022-12-15T02:37:22.625Z,5.17
2022-12-15T02:39:49.244Z,5.49
2022-12-15T02:42:16.420Z,6.02
2022-12-15T02:44:43.547Z,6.09
2022-12-15T02:47:27.552Z,5.86
2022-12-15T02:50:29.307Z,5.64
2022-12-15T02:53:37.135Z,5.16
2022-12-15T02:56:19.226Z,5.37
2022-12-15T02:59:11.222Z,5.44
2022-12-15T03:01:50.081Z,5.58
2022-12-15T03:04:18.200Z,5.90
2022-12-15T03:06:44.951Z,5.81
2022-12-15T03:09:12.511Z,5.33
2022-12-15T03:11:39.180Z,5.27
2022-12-15T03:14:05.776Z,5.54
2022-12-15T03:16:32.440Z,5.21
2022-12-15T03:18:59.066Z,5.39
2022-12-15T03:21:25.644Z,5.60
2022-12-15T03:23:52.240Z,5.67
2022-12-15T03:26:18.831Z,5.53
2022-12-15T03:28:45.531Z,5.73
2022-12-15T03:31:12.138Z,5.87
2022-12-15T03:33:38.784Z,5.94
2022-12-15T03:36:05.603Z,5.64
2022-12-15T03:38:32.227Z,5.50
2022-12-15T03:40:58.853Z,5.44
2022-12-15T03:43:25.480Z,5.58
2022-12-15T03:45:52.339Z,5.72
2022-12-15T03:48:18.959Z,5.67
2022-12-15T03:50:47.595Z,5.27
2022-12-15T03:53:14.293Z,5.14
2022-12-15T03:55:40.856Z,5.03
2022-12-15T03:58:07.630Z,5.03
2022-12-15T04:00:34.685Z,5.29
2022-12-15T04:03:01.427Z,5.42
2022-12-15T04:05:30.797Z,5.41
2022-12-15T04:07:59.093Z,5.43
2022-12-15T04:10:33.539Z,4.91
2022-12-15T04:13:04.214Z,4.64
2022-12-15T04:15:30.850Z,4.81
2022-12-15T04:17:58.393Z,5.14
2022-12-15T04:20:24.985Z,5.35
2022-12-15T04:22:51.775Z,5.25
2022-12-15T04:25:40.835Z,5.36
2022-12-15T04:28:27.261Z,5.50
2022-12-15T04:31:24.896Z,5.61
2022-12-15T04:34:13.213Z,4.54
2022-12-15T04:37:00.903Z,4.36
2022-12-15T04:39:46.333Z,4.45
2022-12-15T04:42:31.708Z,4.44
2022-12-15T04:45:21.264Z,4.42
2022-12-15T04:48:07.097Z,4.41
2022-12-15T04:50:52.436Z,4.79
2022-12-15T04:53:38.711Z,5.28
2022-12-15T04:56:31.135Z,5.36
2022-12-15T04:59:16.564Z,5.59
2022-12-15T05:02:02.596Z,5.56
2022-12-15T05:04:47.961Z,5.44
2022-12-15T05:07:33.925Z,5.50
2022-12-15T05:10:19.173Z,5.47
2022-12-15T05:13:04.243Z,5.22
2022-12-15T05:15:51.308Z,5.23
2022-12-15T05:18:36.382Z,5.29
2022-12-15T05:21:21.940Z,5.58
2022-12-15T05:24:07.327Z,4.87
2022-12-15T05:26:53.469Z,4.55
2022-12-15T05:29:39.239Z,4.74
2022-12-15T05:32:06.751Z,4.85
2022-12-15T05:34:35.105Z,5.14
2022-12-15T05:37:03.253Z,5.70
2022-12-15T05:39:29.930Z,5.49
2022-12-15T05:41:57.333Z,5.54
2022-12-15T05:44:25.085Z,5.28
2022-12-15T05:46:51.814Z,4.84
2022-12-15T05:49:19.185Z,4.86
2022-12-15T05:51:47.855Z,4.84
2022-12-15T05:54:16.765Z,4.95
2022-12-15T05:56:43.751Z,5.15
2022-12-15T05:59:10.361Z,4.97
2022-12-15T06:01:37.202Z,4.82
2022-12-15T06:04:04.370Z,5.14
2022-12-15T06:06:31.076Z,5.06
2022-12-15T06:08:57.772Z,5.42
2022-12-15T06:11:24.563Z,5.31
2022-12-15T06:13:51.158Z,5.32
2022-12-15T06:16:21.970Z,5.25
2022-12-15T06:18:52.446Z,5.63
2022-12-15T06:21:25.786Z,5.79
2022-12-15T06:23:53.308Z,5.98
2022-12-15T06:26:30.095Z,5.57
2022-12-15T06:28:58.771Z,5.74
2022-12-15T06:31:26.699Z,5.97
2022-12-15T06:34:01.409Z,5.91
2022-12-15T06:36:30.728Z,5.79
2022-12-15T06:39:04.332Z,5.96
2022-12-15T06:41:32.042Z,6.12
2022-12-15T06:43:59.657Z,6.31
2022-12-15T06:46:28.167Z,6.60
2022-12-15T06:48:55.201Z,6.80
2022-12-15T06:51:22.361Z,5.88
2022-12-15T06:53:49.919Z,6.49
2022-12-15T06:56:30.637Z,5.72
2022-12-15T06:58:59.622Z,6.14
2022-12-15T07:01:26.929Z,5.90
2022-12-15T07:03:54.694Z,6.04
2022-12-15T07:06:21.719Z,6.30
2022-12-15T07:08:52.506Z,6.18
2022-12-15T07:11:21.123Z,5.77
2022-12-15T07:13:52.518Z,5.91
2022-12-15T07:16:20.419Z,6.23
2022-12-15T07:18:47.388Z,6.21
2022-12-15T07:21:14.081Z,6.28
2022-12-15T07:23:54.043Z,6.10
2022-12-15T07:26:22.027Z,6.21
2022-12-15T07:28:48.617Z,6.44
2022-12-15T07:31:15.871Z,6.32
2022-12-15T07:33:42.975Z,6.10
2022-12-15T07:36:11.095Z,6.36
2022-12-15T07:38:38.235Z,6.39
2022-12-15T07:41:09.987Z,6.77
2022-12-15T07:43:38.117Z,6.79
2022-12-15T07:46:05.559Z,6.93
2022-12-15T07:48:33.248Z,6.94
2022-12-15T07:51:11.103Z,6.98
2022-12-15T07:53:42.194Z,7.08
2022-12-15T07:56:10.162Z,7.14
2022-12-15T07:58:38.163Z,7.26
2022-12-15T08:01:07.712Z,6.84
2022-12-15T08:03:36.050Z,7.20
2022-12-15T08:06:08.001Z,7.14
2022-12-15T08:08:35.827Z,7.21
2022-12-15T08:11:07.424Z,7.34
2022-12-15T08:16:25.370Z,7.52
2022-12-15T08:18:52.144Z,7.56
2022-12-15T08:21:21.199Z,7.66
2022-12-15T08:23:48.160Z,7.69
2022-12-15T08:26:17.629Z,7.53
2022-12-15T08:28:44.318Z,7.54
2022-12-15T08:31:22.147Z,7.58
2022-12-15T08:33:49.248Z,7.68
2022-12-15T08:36:18.293Z,7.47
2022-12-15T08:38:46.335Z,7.70
2022-12-15T08:41:19.320Z,7.74
2022-12-15T08:43:49.554Z,7.95
2022-12-15T08:46:21.695Z,7.92
2022-12-15T08:48:49.496Z,8.03
2022-12-15T08:51:17.432Z,8.11
2022-12-15T08:53:44.327Z,8.02
2022-12-15T08:56:18.613Z,7.90
2022-12-15T08:58:47.299Z,8.03
2022-12-15T09:01:23.948Z,8.12
2022-12-15T09:03:53.850Z,8.04
2022-12-15T09:06:32.716Z,7.90
2022-12-15T09:09:03.056Z,8.13
2022-12-15T09:11:30.412Z,8.02
2022-12-15T09:13:57.918Z,8.34
2022-12-15T09:16:25.494Z,8.35
2022-12-15T09:18:54.850Z,7.95
2022-12-15T09:21:25.157Z,7.91
2022-12-15T09:23:54.291Z,7.95
2022-12-15T09:26:23.241Z,8.17
2022-12-15T09:28:51.087Z,8.38
2022-12-15T09:31:22.027Z,7.87
2022-12-15T09:33:51.247Z,8.07
2022-12-15T09:36:18.031Z,7.96
2022-12-15T09:38:45.011Z,8.41
2022-12-15T09:41:17.224Z,8.54
2022-12-15T09:44:06.791Z,9.08
2022-12-15T09:46:34.268Z,8.96
2022-12-15T09:49:10.914Z,9.35
2022-12-15T09:51:48.027Z,9.32
2022-12-15T09:54:14.939Z,9.40
2022-12-15T09:56:50.270Z,9.30
2022-12-15T09:59:26.399Z,9.55
2022-12-15T10:02:28.674Z,9.64
2022-12-15T10:05:03.466Z,9.82
2022-12-15T10:07:37.281Z,8.81
2022-12-15T10:10:12.174Z,9.25
2022-12-15T10:12:53.198Z,9.69
2022-12-15T10:15:27.524Z,10.02
2022-12-15T10:18:11.907Z,10.03
2022-12-15T10:20:38.608Z,10.04
2022-12-15T10:23:14.232Z,10.20
2022-12-15T10:25:47.299Z,9.96
2022-12-15T10:28:33.223Z,9.44
2022-12-15T10:31:07.998Z,9.95
2022-12-15T10:33:47.174Z,10.23
2022-12-15T10:36:16.790Z,9.70
2022-12-15T10:38:50.416Z,9.61
2022-12-15T10:41:23.694Z,9.84
2022-12-15T10:43:52.068Z,9.40
2022-12-15T10:46:23.411Z,9.34
2022-12-15T10:49:23.249Z,9.58
2022-12-15T10:51:57.308Z,9.78
2022-12-15T10:54:31.790Z,9.83
2022-12-15T10:57:02.957Z,9.32
2022-12-15T10:59:36.376Z,9.63
2022-12-15T11:02:25.675Z,9.90
2022-12-15T11:04:57.954Z,9.34
2022-12-15T11:07:36.071Z,9.31
2022-12-15T11:10:25.344Z,9.59
2022-12-15T11:13:13.779Z,9.72
2022-12-15T11:15:53.216Z,9.72
2022-12-15T11:19:00.000Z,9.51
2022-12-15T11:21:35.099Z,9.38
2022-12-15T11:24:22.608Z,9.79
2022-12-15T11:26:53.035Z,10.03
2022-12-15T11:29:57.178Z,9.92
2022-12-15T11:32:27.281Z,10.00
2022-12-15T11:34:55.242Z,9.74
2022-12-15T11:37:37.343Z,10.04
2022-12-15T11:40:36.766Z,9.89
2022-12-15T11:43:26.933Z,9.95
2022-12-15T11:46:18.266Z,9.31
2022-12-15T11:49:19.938Z,9.36
2022-12-15T11:51:57.903Z,9.49
2022-12-15T11:54:28.393Z,9.42
2022-12-15T11:57:32.427Z,9.67
2022-12-15T12:00:15.851Z,9.81
2022-12-15T12:03:10.182Z,9.74
2022-12-15T12:05:42.662Z,9.59
2022-12-15T12:08:29.473Z,9.78
2022-12-15T12:11:36.923Z,9.51
2022-12-15T12:14:34.175Z,9.64
2022-12-15T12:17:12.051Z,9.75
2022-12-15T12:19:45.715Z,9.89
2022-12-15T12:22:40.233Z,9.89
2022-12-15T12:25:15.469Z,9.84
2022-12-15T12:28:13.551Z,10.00
2022-12-15T12:30:45.433Z,10.06
2022-12-15T12:33:36.747Z,10.12
2022-12-15T12:36:10.955Z,9.92
2022-12-15T12:38:58.148Z,9.94
2022-12-15T12:41:39.535Z,10.04
2022-12-15T12:44:38.651Z,9.92
2022-12-15T12:47:20.190Z,9.87
2022-12-15T12:49:58.837Z,9.71
2022-12-15T12:52:28.191Z,9.93
2022-12-15T12:55:09.454Z,10.01
2022-12-15T12:57:39.229Z,9.75
2022-12-15T13:00:08.666Z,9.89
2022-12-15T13:02:37.009Z,10.00
2022-12-15T13:05:35.590Z,9.95
2022-12-15T13:08:08.182Z,9.87
2022-12-15T13:10:48.298Z,9.86
2022-12-15T13:13:30.123Z,9.99
2022-12-15T13:16:11.864Z,10.04
2022-12-15T13:18:58.990Z,9.97
2022-12-15T13:21:44.048Z,9.89
2022-12-15T13:24:25.612Z,10.00
2022-12-15T13:26:52.972Z,10.15
2022-12-15T13:29:25.584Z,10.17
2022-12-15T13:31:53.275Z,10.27
2022-12-15T13:34:28.680Z,10.23
2022-12-15T13:36:57.250Z,10.18
2022-12-15T13:39:29.972Z,10.14
2022-12-15T13:44:51.909Z,10.11
2022-12-15T13:47:30.089Z,9.96
2022-12-15T13:50:02.280Z,9.86
2022-12-15T13:53:16.200Z,9.93
2022-12-15T13:55:27.242Z,9.67
2022-12-15T13:58:00.731Z,9.63
2022-12-15T14:00:27.473Z,9.74
2022-12-15T14:03:13.192Z,9.40
2022-12-15T14:05:42.967Z,9.34
2022-12-15T14:08:14.443Z,9.46
2022-12-15T14:10:42.087Z,9.65
2022-12-15T14:16:21.185Z,9.46
2022-12-15T14:19:23.276Z,9.34
2022-12-15T14:21:56.359Z,9.35
2022-12-15T14:24:42.761Z,9.45
2022-12-15T14:27:09.396Z,9.40
2022-12-15T14:29:36.119Z,9.58
2022-12-15T14:32:03.588Z,9.49
2022-12-15T14:34:41.787Z,9.45
2022-12-15T14:37:16.510Z,9.54
2022-12-15T14:39:46.218Z,9.49
2022-12-15T14:42:21.900Z,9.32
2022-12-15T14:47:36.012Z,9.40
2022-12-15T14:50:04.248Z,9.32
2022-12-15T14:52:39.346Z,9.25
2022-12-15T14:55:21.250Z,9.10
2022-12-15T14:57:48.909Z,9.22
2022-12-15T15:00:31.281Z,9.05
2022-12-15T15:03:09.925Z,9.40
2022-12-15T15:03:14.222Z,9.66
2022-12-15T15:03:20.031Z,8.96
2022-12-15T15:05:55.901Z,8.93
2022-12-15T15:08:35.449Z,8.93
2022-12-15T15:11:19.299Z,8.75
2022-12-15T15:13:46.958Z,8.61
2022-12-15T15:16:19.104Z,8.76
2022-12-15T15:18:54.095Z,8.43
2022-12-15T15:21:24.034Z,8.41
2022-12-15T15:24:12.203Z,8.25
2022-12-15T15:26:40.062Z,8.49
2022-12-15T15:29:42.122Z,8.50
2022-12-15T15:32:19.444Z,8.46
2022-12-15T15:34:47.304Z,8.16
2022-12-15T15:37:26.226Z,8.22
2022-12-15T15:39:56.323Z,7.78
2022-12-15T15:42:26.526Z,7.68
2022-12-15T15:44:55.800Z,7.65
2022-12-15T15:47:26.114Z,7.51
2022-12-15T15:49:54.977Z,7.63
2022-12-15T15:52:23.003Z,7.95
2022-12-15T15:54:50.147Z,8.09
2022-12-15T15:57:17.893Z,7.84
2022-12-15T15:59:45.306Z,7.92
2022-12-15T16:02:13.817Z,8.02
2022-12-15T16:04:44.825Z,8.10
2022-12-15T16:07:25.602Z,8.15
2022-12-15T16:09:53.637Z,8.20
2022-12-15T16:12:29.580Z,8.35
2022-12-15T16:14:56.562Z,8.40
2022-12-15T16:17:25.471Z,8.40
2022-12-15T16:19:52.076Z,8.51
2022-12-15T16:22:21.341Z,8.44
2022-12-15T16:24:51.732Z,8.51
2022-12-15T16:27:19.459Z,8.35
2022-12-15T16:29:46.036Z,8.45
2022-12-15T16:32:13.417Z,8.43
2022-12-15T16:34:41.628Z,8.53
2022-12-15T16:37:26.320Z,8.38
2022-12-15T16:39:53.310Z,8.60
2022-12-15T16:42:19.932Z,8.43
2022-12-15T16:44:46.569Z,8.48
2022-12-15T16:47:13.198Z,8.49
2022-12-15T16:49:40.578Z,8.63
2022-12-15T16:52:18.409Z,8.65
2022-12-15T16:54:48.874Z,8.64
2022-12-15T16:57:15.591Z,8.50
2022-12-15T16:59:42.188Z,8.63
2022-12-15T17:02:36.103Z,8.36
2022-12-15T17:05:02.881Z,8.51
2022-12-15T17:07:29.692Z,8.05
2022-12-15T17:09:56.717Z,8.31
2022-12-15T17:12:23.494Z,8.37
2022-12-15T17:14:50.026Z,8.28
2022-12-15T17:17:19.708Z,8.32
2022-12-15T17:20:19.765Z,8.42
2022-12-15T17:22:33.878Z,8.36
2022-12-15T17:25:00.524Z,8.42
2022-12-15T17:27:29.536Z,8.50
2022-12-15T17:29:59.540Z,8.42
2022-12-15T17:32:26.823Z,8.38
2022-12-15T17:34:53.470Z,8.37
2022-12-15T17:37:20.073Z,8.35
2022-12-15T17:39:51.231Z,8.56
2022-12-15T17:42:20.218Z,8.62
2022-12-15T17:44:51.806Z,8.52
2022-12-15T17:47:25.998Z,8.66
2022-12-15T17:49:58.516Z,8.41
2022-12-15T17:52:30.914Z,8.41
2022-12-15T17:54:57.985Z,8.54
2022-12-15T17:57:25.600Z,8.61
2022-12-15T17:59:58.240Z,8.69
2022-12-15T18:02:25.041Z,8.16
2022-12-15T18:04:51.951Z,8.47
2022-12-15T18:07:22.042Z,8.26
2022-12-15T18:09:50.368Z,8.38
2022-12-15T18:12:22.655Z,8.25
2022-12-15T18:14:49.757Z,8.49
2022-12-15T18:17:16.652Z,8.56
2022-12-15T18:19:46.617Z,8.42
2022-12-15T18:22:22.942Z,8.30
2022-12-15T18:24:54.095Z,8.16
2022-12-15T18:27:26.995Z,8.16
2022-12-15T18:29:54.058Z,8.32
2022-12-15T18:32:23.754Z,7.80
2022-12-15T18:35:18.901Z,7.91
2022-12-15T18:38:27.291Z,7.95
2022-12-15T18:41:00.294Z,7.87
2022-12-15T18:43:39.051Z,7.74
2022-12-15T18:46:13.452Z,7.59
2022-12-15T18:48:41.320Z,7.64
2022-12-15T18:51:22.329Z,7.69
2022-12-15T18:53:49.351Z,8.06
2022-12-15T18:56:18.191Z,7.96
2022-12-15T18:58:45.697Z,8.07
2022-12-15T19:01:12.345Z,8.00
2022-12-15T19:03:41.024Z,7.85
2022-12-15T19:06:20.303Z,7.74
2022-12-15T19:08:50.902Z,7.98
2022-12-15T19:11:30.949Z,7.96
2022-12-15T19:13:59.325Z,8.09
2022-12-15T19:16:26.852Z,7.73
2022-12-15T19:19:17.076Z,7.82
2022-12-15T19:22:02.940Z,7.91
2022-12-15T19:24:50.367Z,7.92
2022-12-15T19:27:23.250Z,7.84
2022-12-15T19:29:50.631Z,7.55
2022-12-15T19:32:17.219Z,7.51
2022-12-15T19:34:44.331Z,7.91
2022-12-15T19:37:25.166Z,7.66
2022-12-15T19:39:52.315Z,7.59
2022-12-15T19:42:28.039Z,7.69
2022-12-15T19:44:54.663Z,7.90
2022-12-15T19:47:21.482Z,7.94
2022-12-15T19:49:48.054Z,7.90
2022-12-15T19:52:16.502Z,7.54
2022-12-15T19:54:45.233Z,7.76
2022-12-15T19:57:13.084Z,7.70
2022-12-15T19:59:39.869Z,7.93
2022-12-15T20:02:09.012Z,7.83
2022-12-15T20:04:35.827Z,7.96
2022-12-15T20:07:04.193Z,8.10
2022-12-15T20:09:30.831Z,7.96
2022-12-15T20:11:57.785Z,8.04
2022-12-15T20:14:24.870Z,7.99
2022-12-15T20:16:51.604Z,7.89
2022-12-15T20:19:18.270Z,7.99
2022-12-15T20:21:47.738Z,7.78
2022-12-15T20:24:18.886Z,7.88
2022-12-15T20:26:46.644Z,8.06
2022-12-15T20:29:28.929Z,7.92
2022-12-15T20:31:57.630Z,7.98
2022-12-15T20:34:24.844Z,7.91
2022-12-15T20:36:51.705Z,7.74
2022-12-15T20:39:21.165Z,7.75
2022-12-15T20:41:47.859Z,7.81
2022-12-15T20:44:14.534Z,7.63
2022-12-15T20:46:41.606Z,7.50
2022-12-15T20:49:22.440Z,7.42
2022-12-15T20:51:49.261Z,7.24
2022-12-15T20:54:21.589Z,7.43
2022-12-15T20:56:49.468Z,7.72
2022-12-15T20:59:17.689Z,7.88
2022-12-15T21:01:44.730Z,7.74
2022-12-15T21:04:26.858Z,7.74
2022-12-15T21:06:55.240Z,7.66
2022-12-15T21:09:22.357Z,7.91
2022-12-15T21:11:49.653Z,7.90
2022-12-15T21:14:19.621Z,7.53
2022-12-15T21:16:46.947Z,7.51
2022-12-15T21:19:20.262Z,7.42
2022-12-15T21:21:51.894Z,7.39
2022-12-15T21:24:24.997Z,7.46
2022-12-15T21:26:52.003Z,7.51
2022-12-15T21:29:24.963Z,7.49
2022-12-15T21:31:51.744Z,7.64
2022-12-15T21:34:18.407Z,7.67
2022-12-15T21:36:47.687Z,7.77
2022-12-15T21:39:34.147Z,7.72
2022-12-15T21:42:11.436Z,7.56
2022-12-15T21:44:38.052Z,7.97
2022-12-15T21:47:47.109Z,7.60
2022-12-15T21:50:14.854Z,7.92
2022-12-15T21:52:41.798Z,7.85
2022-12-15T21:55:21.265Z,7.99
2022-12-15T21:57:47.963Z,8.11
2022-12-15T22:00:17.513Z,8.01
2022-12-15T22:02:45.606Z,8.06
2022-12-15T22:05:20.640Z,8.15
2022-12-15T22:07:48.885Z,8.27
2022-12-15T22:10:16.506Z,8.32
2022-12-15T22:12:45.728Z,8.39
2022-12-15T22:15:15.554Z,7.87
2022-12-15T22:17:42.544Z,7.95
2022-12-15T22:20:21.225Z,7.87
2022-12-15T22:22:48.275Z,7.57
2022-12-15T22:25:25.770Z,7.89
2022-12-15T22:27:52.665Z,7.93
2022-12-15T22:30:25.763Z,7.88
2022-12-15T22:32:52.857Z,8.13
2022-12-15T22:35:25.938Z,8.11
2022-12-15T22:37:56.383Z,8.15
2022-12-15T22:40:24.295Z,8.20
2022-12-15T22:42:57.693Z,8.04
2022-12-15T22:45:24.419Z,8.27
2022-12-15T22:47:52.438Z,8.04
2022-12-15T22:50:22.059Z,7.95
2022-12-15T22:52:48.786Z,7.86
2022-12-15T22:55:17.764Z,7.73
2022-12-15T22:57:50.332Z,7.68
2022-12-15T23:00:17.983Z,7.77
2022-12-15T23:02:46.502Z,8.06
2022-12-15T23:05:16.004Z,7.93
2022-12-15T23:07:44.243Z,7.74
2022-12-15T23:10:33.003Z,8.09
2022-12-15T23:12:59.719Z,8.01
2022-12-15T23:15:46.615Z,7.52
2022-12-15T23:18:13.734Z,7.62
2022-12-15T23:20:41.338Z,7.59
2022-12-15T23:23:08.426Z,7.36
2022-12-15T23:25:35.043Z,7.46
2022-12-15T23:28:02.116Z,7.66
2022-12-15T23:30:28.757Z,7.92
2022-12-15T23:32:55.608Z,7.94
2022-12-15T23:35:22.541Z,7.92
2022-12-15T23:37:49.269Z,8.06
2022-12-15T23:40:22.190Z,7.89
2022-12-15T23:42:50.517Z,7.92
2022-12-15T23:45:18.197Z,7.70
2022-12-15T23:47:44.889Z,7.87
2022-12-15T23:50:11.785Z,7.87
2022-12-15T23:52:38.427Z,7.55
2022-12-15T23:55:05.516Z,7.63
2022-12-15T23:57:32.146Z,6.82
2022-12-15T23:59:58.845Z,7.35
